sensor_id;sensor_type;location;lat;lon;timestamp;pressure;altitude;pressure_sealevel;temperature;humidity
6345;BME280;3205;42.666;23.264;2023-01-10T00:02:09;93596.91;;;3.85;100.00
6345;BME280;3205;42.666;23.264;2023-01-10T00:04:35;93586.31;;;3.82;100.00
6345;BME280;3205;42.666;23.264;2023-01-10T00:07:02;93597.34;;;3.79;100.00
6345;BME280;3205;42.666;23.264;2023-01-10T00:09:28;93595.22;;;3.81;100.00
6345;BME280;3205;42.666;23.264;2023-01-10T00:11:54;93595.19;;;3.89;100.00
6345;BME280;3205;42.666;23.264;2023-01-10T00:14:39;93590.59;;;3.86;100.00
6345;BME280;3205;42.666;23.264;2023-01-10T00:17:05;93582.59;;;3.83;100.00
6345;BME280;3205;42.666;23.264;2023-01-10T00:19:32;93572.91;;;3.83;100.00
6345;BME280;3205;42.666;23.264;2023-01-10T00:21:58;93583.81;;;3.77;100.00
6345;BME280;3205;42.666;23.264;2023-01-10T00:24:38;93558.47;;;3.77;100.00
6345;BME280;3205;42.666;23.264;2023-01-10T00:27:04;93567.22;;;3.81;100.00
6345;BME280;3205;42.666;23.264;2023-01-10T00:29:31;93554.63;;;3.66;100.00
6345;BME280;3205;42.666;23.264;2023-01-10T00:31:59;93552.50;;;3.60;100.00
6345;BME280;3205;42.666;23.264;2023-01-10T00:34:26;93607.81;;;3.54;100.00
6345;BME280;3205;42.666;23.264;2023-01-10T00:36:52;93574.59;;;3.71;100.00
6345;BME280;3205;42.666;23.264;2023-01-10T00:39:18;93531.75;;;3.64;100.00
6345;BME280;3205;42.666;23.264;2023-01-10T00:41:45;93541.41;;;3.63;100.00
6345;BME280;3205;42.666;23.264;2023-01-10T00:44:30;93496.09;;;3.59;100.00
6345;BME280;3205;42.666;23.264;2023-01-10T00:46:56;93523.00;;;3.51;100.00
6345;BME280;3205;42.666;23.264;2023-01-10T00:49:23;93542.66;;;3.57;100.00
6345;BME280;3205;42.666;23.264;2023-01-10T00:51:49;93562.94;;;3.60;100.00
6345;BME280;3205;42.666;23.264;2023-01-10T00:54:16;93533.72;;;3.66;100.00
6345;BME280;3205;42.666;23.264;2023-01-10T00:56:42;93551.56;;;3.65;100.00
6345;BME280;3205;42.666;23.264;2023-01-10T00:59:09;93539.59;;;3.64;100.00
6345;BME280;3205;42.666;23.264;2023-01-10T01:01:35;93532.66;;;3.59;100.00
6345;BME280;3205;42.666;23.264;2023-01-10T01:04:01;93530.53;;;3.61;100.00
6345;BME280;3205;42.666;23.264;2023-01-10T01:06:28;93513.25;;;3.77;100.00
6345;BME280;3205;42.666;23.264;2023-01-10T01:08:55;93545.28;;;3.66;100.00
6345;BME280;3205;42.666;23.264;2023-01-10T01:11:21;93549.13;;;3.68;100.00
6345;BME280;3205;42.666;23.264;2023-01-10T01:13:47;93537.13;;;3.67;100.00
6345;BME280;3205;42.666;23.264;2023-01-10T01:16:13;93540.34;;;3.72;100.00
6345;BME280;3205;42.666;23.264;2023-01-10T01:18:40;93532.50;;;3.81;100.00
6345;BME280;3205;42.666;23.264;2023-01-10T01:21:06;93523.09;;;3.88;100.00
6345;BME280;3205;42.666;23.264;2023-01-10T01:23:34;93535.09;;;3.81;100.00
6345;BME280;3205;42.666;23.264;2023-01-10T01:26:01;93518.16;;;3.87;100.00
6345;BME280;3205;42.666;23.264;2023-01-10T01:28:27;93551.09;;;3.71;100.00
6345;BME280;3205;42.666;23.264;2023-01-10T01:30:53;93532.66;;;3.76;100.00
6345;BME280;3205;42.666;23.264;2023-01-10T01:33:20;93533.88;;;3.78;100.00
6345;BME280;3205;42.666;23.264;2023-01-10T01:35:47;93540.78;;;3.91;100.00
6345;BME280;3205;42.666;23.264;2023-01-10T01:38:14;93520.94;;;3.90;100.00
6345;BME280;3205;42.666;23.264;2023-01-10T01:40:41;93518.94;;;3.96;100.00
6345;BME280;3205;42.666;23.264;2023-01-10T01:43:20;93518.31;;;3.90;100.00
6345;BME280;3205;42.666;23.264;2023-01-10T01:45:47;93521.25;;;3.89;100.00
6345;BME280;3205;42.666;23.264;2023-01-10T01:48:23;93532.47;;;3.89;100.00
6345;BME280;3205;42.666;23.264;2023-01-10T01:50:56;93509.25;;;3.88;100.00
6345;BME280;3205;42.666;23.264;2023-01-10T01:53:26;93515.72;;;3.82;100.00
6345;BME280;3205;42.666;23.264;2023-01-10T01:56:00;93513.56;;;3.92;100.00
6345;BME280;3205;42.666;23.264;2023-01-10T01:58:32;93500.72;;;4.08;100.00
6345;BME280;3205;42.666;23.264;2023-01-10T02:01:02;93476.41;;;4.07;100.00
6345;BME280;3205;42.666;23.264;2023-01-10T02:03:29;93481.50;;;4.04;100.00
6345;BME280;3205;42.666;23.264;2023-01-10T02:05:55;93468.94;;;3.97;100.00
6345;BME280;3205;42.666;23.264;2023-01-10T02:08:21;93479.44;;;3.89;100.00
6345;BME280;3205;42.666;23.264;2023-01-10T02:10:52;93481.91;;;3.85;100.00
6345;BME280;3205;42.666;23.264;2023-01-10T02:13:22;93484.19;;;3.87;100.00
6345;BME280;3205;42.666;23.264;2023-01-10T02:15:50;93474.03;;;3.94;100.00
6345;BME280;3205;42.666;23.264;2023-01-10T02:18:16;93479.56;;;3.92;100.00
6345;BME280;3205;42.666;23.264;2023-01-10T02:20:58;93467.72;;;3.95;100.00
6345;BME280;3205;42.666;23.264;2023-01-10T02:24:05;93470.81;;;3.88;100.00
6345;BME280;3205;42.666;23.264;2023-01-10T02:27:11;93450.84;;;3.84;100.00
6345;BME280;3205;42.666;23.264;2023-01-10T02:29:56;93449.94;;;3.80;100.00
6345;BME280;3205;42.666;23.264;2023-01-10T02:32:36;93467.75;;;3.78;100.00
6345;BME280;3205;42.666;23.264;2023-01-10T02:35:12;93456.25;;;3.79;100.00
6345;BME280;3205;42.666;23.264;2023-01-10T02:37:51;93455.34;;;3.75;100.00
6345;BME280;3205;42.666;23.264;2023-01-10T02:40:21;93465.03;;;3.66;100.00
6345;BME280;3205;42.666;23.264;2023-01-10T02:42:54;93453.97;;;3.69;100.00
6345;BME280;3205;42.666;23.264;2023-01-10T02:45:27;93455.97;;;3.64;100.00
6345;BME280;3205;42.666;23.264;2023-01-10T02:47:55;93443.66;;;3.72;100.00
6345;BME280;3205;42.666;23.264;2023-01-10T02:50:28;93442.88;;;3.72;100.00
6345;BME280;3205;42.666;23.264;2023-01-10T02:52:59;93461.38;;;3.59;100.00
6345;BME280;3205;42.666;23.264;2023-01-10T02:55:34;93465.06;;;3.58;100.00
6345;BME280;3205;42.666;23.264;2023-01-10T02:58:09;93462.44;;;3.66;100.00
6345;BME280;3205;42.666;23.264;2023-01-10T03:00:44;93478.84;;;3.66;100.00
6345;BME280;3205;42.666;23.264;2023-01-10T03:03:24;93482.41;;;3.70;100.00
6345;BME280;3205;42.666;23.264;2023-01-10T03:06:06;93474.38;;;3.75;100.00
6345;BME280;3205;42.666;23.264;2023-01-10T03:08:40;93479.44;;;3.80;100.00
6345;BME280;3205;42.666;23.264;2023-01-10T03:11:09;93470.97;;;3.83;100.00
6345;BME280;3205;42.666;23.264;2023-01-10T03:13:41;93470.22;;;3.83;100.00
6345;BME280;3205;42.666;23.264;2023-01-10T03:16:12;93487.41;;;3.84;100.00
6345;BME280;3205;42.666;23.264;2023-01-10T03:18:43;93466.69;;;3.79;100.00
6345;BME280;3205;42.666;23.264;2023-01-10T03:21:12;93485.34;;;3.69;100.00
6345;BME280;3205;42.666;23.264;2023-01-10T03:23:39;93477.00;;;3.75;100.00
6345;BME280;3205;42.666;23.264;2023-01-10T03:26:07;93482.84;;;3.81;100.00
6345;BME280;3205;42.666;23.264;2023-01-10T03:28:38;93484.97;;;3.79;100.00
6345;BME280;3205;42.666;23.264;2023-01-10T03:31:10;93475.41;;;3.91;100.00
6345;BME280;3205;42.666;23.264;2023-01-10T03:33:39;93479.16;;;3.82;100.00
6345;BME280;3205;42.666;23.264;2023-01-10T03:36:12;93474.19;;;3.89;100.00
6345;BME280;3205;42.666;23.264;2023-01-10T03:38:46;93488.66;;;3.86;100.00
6345;BME280;3205;42.666;23.264;2023-01-10T03:41:21;93484.81;;;3.84;100.00
6345;BME280;3205;42.666;23.264;2023-01-10T03:43:53;93464.34;;;3.86;100.00
6345;BME280;3205;42.666;23.264;2023-01-10T03:46:45;93475.47;;;3.83;100.00
6345;BME280;3205;42.666;23.264;2023-01-10T03:49:14;93472.53;;;3.84;100.00
6345;BME280;3205;42.666;23.264;2023-01-10T03:51:42;93468.66;;;3.90;100.00
6345;BME280;3205;42.666;23.264;2023-01-10T03:54:09;93458.47;;;3.97;100.00
6345;BME280;3205;42.666;23.264;2023-01-10T03:56:46;93431.69;;;4.09;100.00
6345;BME280;3205;42.666;23.264;2023-01-10T03:59:14;93432.47;;;4.01;100.00
6345;BME280;3205;42.666;23.264;2023-01-10T04:01:41;93408.22;;;3.92;100.00
6345;BME280;3205;42.666;23.264;2023-01-10T04:04:07;93399.97;;;3.81;100.00
6345;BME280;3205;42.666;23.264;2023-01-10T04:06:33;93389.41;;;3.69;100.00
6345;BME280;3205;42.666;23.264;2023-01-10T04:09:01;93402.19;;;3.63;100.00
6345;BME280;3205;42.666;23.264;2023-01-10T04:11:27;93384.78;;;3.66;100.00
6345;BME280;3205;42.666;23.264;2023-01-10T04:13:53;93377.69;;;3.75;100.00
6345;BME280;3205;42.666;23.264;2023-01-10T04:16:19;93382.78;;;3.72;100.00
6345;BME280;3205;42.666;23.264;2023-01-10T04:18:46;93397.72;;;3.63;100.00
6345;BME280;3205;42.666;23.264;2023-01-10T04:21:12;93407.09;;;3.64;100.00
6345;BME280;3205;42.666;23.264;2023-01-10T04:23:38;93427.25;;;3.64;100.00
6345;BME280;3205;42.666;23.264;2023-01-10T04:26:05;93452.00;;;3.58;100.00
6345;BME280;3205;42.666;23.264;2023-01-10T04:28:31;93463.03;;;3.63;100.00
6345;BME280;3205;42.666;23.264;2023-01-10T04:30:58;93464.06;;;3.79;100.00
6345;BME280;3205;42.666;23.264;2023-01-10T04:33:24;93473.31;;;3.76;100.00
6345;BME280;3205;42.666;23.264;2023-01-10T04:35:51;93478.50;;;3.85;100.00
6345;BME280;3205;42.666;23.264;2023-01-10T04:38:17;93480.97;;;3.90;100.00
6345;BME280;3205;42.666;23.264;2023-01-10T04:40:44;93461.09;;;3.97;100.00
6345;BME280;3205;42.666;23.264;2023-01-10T04:43:17;93465.22;;;4.07;100.00
6345;BME280;3205;42.666;23.264;2023-01-10T04:45:44;93454.44;;;4.08;100.00
6345;BME280;3205;42.666;23.264;2023-01-10T04:48:10;93439.94;;;4.11;100.00
6345;BME280;3205;42.666;23.264;2023-01-10T04:50:36;93448.16;;;4.01;100.00
6345;BME280;3205;42.666;23.264;2023-01-10T04:53:03;93455.72;;;3.94;100.00
6345;BME280;3205;42.666;23.264;2023-01-10T04:55:29;93457.19;;;4.12;100.00
6345;BME280;3205;42.666;23.264;2023-01-10T04:57:56;93454.84;;;4.19;100.00
6345;BME280;3205;42.666;23.264;2023-01-10T05:00:23;93446.56;;;4.17;100.00
6345;BME280;3205;42.666;23.264;2023-01-10T05:02:54;93452.72;;;4.12;100.00
6345;BME280;3205;42.666;23.264;2023-01-10T05:05:20;93445.19;;;4.11;100.00
6345;BME280;3205;42.666;23.264;2023-01-10T05:07:47;93451.59;;;4.22;100.00
6345;BME280;3205;42.666;23.264;2023-01-10T05:10:13;93446.56;;;4.17;100.00
6345;BME280;3205;42.666;23.264;2023-01-10T05:12:39;93443.16;;;4.16;100.00
6345;BME280;3205;42.666;23.264;2023-01-10T05:15:07;93437.53;;;4.06;100.00
6345;BME280;3205;42.666;23.264;2023-01-10T05:17:34;93425.38;;;4.10;100.00
6345;BME280;3205;42.666;23.264;2023-01-10T05:20:00;93409.84;;;4.05;100.00
6345;BME280;3205;42.666;23.264;2023-01-10T05:22:26;93408.00;;;4.05;100.00
6345;BME280;3205;42.666;23.264;2023-01-10T05:24:53;93412.03;;;4.03;100.00
6345;BME280;3205;42.666;23.264;2023-01-10T05:27:19;93419.97;;;4.15;100.00
6345;BME280;3205;42.666;23.264;2023-01-10T05:29:45;93407.34;;;4.17;100.00
6345;BME280;3205;42.666;23.264;2023-01-10T05:32:11;93416.34;;;4.28;100.00
6345;BME280;3205;42.666;23.264;2023-01-10T05:34:38;93425.88;;;4.32;100.00
6345;BME280;3205;42.666;23.264;2023-01-10T05:37:05;93440.22;;;4.26;100.00
6345;BME280;3205;42.666;23.264;2023-01-10T05:39:31;93448.34;;;4.25;100.00
6345;BME280;3205;42.666;23.264;2023-01-10T05:41:57;93442.69;;;4.23;100.00
6345;BME280;3205;42.666;23.264;2023-01-10T05:44:23;93442.84;;;4.46;100.00
6345;BME280;3205;42.666;23.264;2023-01-10T05:46:49;93449.34;;;4.40;100.00
6345;BME280;3205;42.666;23.264;2023-01-10T05:49:16;93444.47;;;4.31;100.00
6345;BME280;3205;42.666;23.264;2023-01-10T05:51:43;93442.50;;;4.28;100.00
6345;BME280;3205;42.666;23.264;2023-01-10T05:54:09;93446.31;;;4.30;100.00
6345;BME280;3205;42.666;23.264;2023-01-10T05:56:35;93451.50;;;4.38;100.00
6345;BME280;3205;42.666;23.264;2023-01-10T05:59:03;93451.22;;;4.40;100.00
6345;BME280;3205;42.666;23.264;2023-01-10T06:01:29;93445.06;;;4.36;100.00
6345;BME280;3205;42.666;23.264;2023-01-10T06:03:55;93440.16;;;4.35;100.00
6345;BME280;3205;42.666;23.264;2023-01-10T06:06:22;93447.81;;;4.39;100.00
6345;BME280;3205;42.666;23.264;2023-01-10T06:08:49;93450.88;;;4.41;100.00
6345;BME280;3205;42.666;23.264;2023-01-10T06:11:15;93449.84;;;4.34;100.00
6345;BME280;3205;42.666;23.264;2023-01-10T06:13:41;93448.88;;;4.38;100.00
6345;BME280;3205;42.666;23.264;2023-01-10T06:16:07;93449.34;;;4.40;100.00
6345;BME280;3205;42.666;23.264;2023-01-10T06:18:34;93449.00;;;4.50;100.00
6345;BME280;3205;42.666;23.264;2023-01-10T06:21:00;93453.44;;;4.50;100.00
6345;BME280;3205;42.666;23.264;2023-01-10T06:23:26;93447.13;;;4.51;100.00
6345;BME280;3205;42.666;23.264;2023-01-10T06:25:55;93451.88;;;4.57;100.00
6345;BME280;3205;42.666;23.264;2023-01-10T06:28:21;93451.63;;;4.50;100.00
6345;BME280;3205;42.666;23.264;2023-01-10T06:30:47;93459.13;;;4.52;100.00
6345;BME280;3205;42.666;23.264;2023-01-10T06:33:14;93452.97;;;4.56;100.00
6345;BME280;3205;42.666;23.264;2023-01-10T06:35:40;93444.59;;;4.63;100.00
6345;BME280;3205;42.666;23.264;2023-01-10T06:38:08;93450.22;;;4.73;100.00
6345;BME280;3205;42.666;23.264;2023-01-10T06:40:34;93449.06;;;4.62;100.00
6345;BME280;3205;42.666;23.264;2023-01-10T06:43:01;93446.19;;;4.55;100.00
6345;BME280;3205;42.666;23.264;2023-01-10T06:45:27;93449.56;;;4.56;100.00
6345;BME280;3205;42.666;23.264;2023-01-10T06:47:54;93448.16;;;4.58;100.00
6345;BME280;3205;42.666;23.264;2023-01-10T06:50:20;93449.81;;;4.63;100.00
6345;BME280;3205;42.666;23.264;2023-01-10T06:52:54;93451.50;;;4.67;100.00
6345;BME280;3205;42.666;23.264;2023-01-10T06:55:20;93438.88;;;4.69;100.00
6345;BME280;3205;42.666;23.264;2023-01-10T06:57:47;93438.22;;;4.72;100.00
6345;BME280;3205;42.666;23.264;2023-01-10T07:00:15;93438.16;;;4.81;100.00
6345;BME280;3205;42.666;23.264;2023-01-10T07:02:41;93432.81;;;4.77;100.00
6345;BME280;3205;42.666;23.264;2023-01-10T07:05:08;93426.72;;;4.85;100.00
6345;BME280;3205;42.666;23.264;2023-01-10T07:07:34;93417.41;;;4.76;100.00
6345;BME280;3205;42.666;23.264;2023-01-10T07:10:00;93418.69;;;4.70;100.00
6345;BME280;3205;42.666;23.264;2023-01-10T07:12:26;93411.53;;;4.58;100.00
6345;BME280;3205;42.666;23.264;2023-01-10T07:14:53;93412.94;;;4.56;100.00
6345;BME280;3205;42.666;23.264;2023-01-10T07:17:20;93408.72;;;4.63;100.00
6345;BME280;3205;42.666;23.264;2023-01-10T07:19:46;93403.13;;;4.53;100.00
6345;BME280;3205;42.666;23.264;2023-01-10T07:22:12;93406.88;;;4.43;100.00
6345;BME280;3205;42.666;23.264;2023-01-10T07:24:39;93409.75;;;4.50;100.00
6345;BME280;3205;42.666;23.264;2023-01-10T07:27:05;93411.84;;;4.57;100.00
6345;BME280;3205;42.666;23.264;2023-01-10T07:29:31;93404.72;;;4.66;100.00
6345;BME280;3205;42.666;23.264;2023-01-10T07:31:57;93396.34;;;4.72;100.00
6345;BME280;3205;42.666;23.264;2023-01-10T07:34:24;93388.81;;;4.71;100.00
6345;BME280;3205;42.666;23.264;2023-01-10T07:36:50;93393.84;;;4.76;100.00
6345;BME280;3205;42.666;23.264;2023-01-10T07:39:17;93386.78;;;4.76;100.00
6345;BME280;3205;42.666;23.264;2023-01-10T07:41:43;93386.56;;;4.81;100.00
6345;BME280;3205;42.666;23.264;2023-01-10T07:44:11;93392.88;;;4.80;100.00
6345;BME280;3205;42.666;23.264;2023-01-10T07:46:38;93388.72;;;4.79;100.00
6345;BME280;3205;42.666;23.264;2023-01-10T07:49:04;93382.53;;;4.84;100.00
6345;BME280;3205;42.666;23.264;2023-01-10T07:51:31;93389.78;;;4.87;100.00
6345;BME280;3205;42.666;23.264;2023-01-10T07:53:57;93384.31;;;4.92;100.00
6345;BME280;3205;42.666;23.264;2023-01-10T07:56:24;93382.03;;;4.90;100.00
6345;BME280;3205;42.666;23.264;2023-01-10T07:58:50;93380.75;;;4.96;100.00
6345;BME280;3205;42.666;23.264;2023-01-10T08:01:16;93382.84;;;5.03;100.00
6345;BME280;3205;42.666;23.264;2023-01-10T08:03:42;93380.03;;;5.08;100.00
6345;BME280;3205;42.666;23.264;2023-01-10T08:06:09;93383.06;;;5.10;100.00
6345;BME280;3205;42.666;23.264;2023-01-10T08:08:36;93379.50;;;5.14;100.00
6345;BME280;3205;42.666;23.264;2023-01-10T08:11:03;93373.94;;;5.15;100.00
6345;BME280;3205;42.666;23.264;2023-01-10T08:13:30;93382.69;;;5.19;100.00
6345;BME280;3205;42.666;23.264;2023-01-10T08:15:57;93381.72;;;5.24;100.00
6345;BME280;3205;42.666;23.264;2023-01-10T08:18:24;93385.34;;;5.31;100.00
6345;BME280;3205;42.666;23.264;2023-01-10T08:20:52;93372.13;;;5.28;100.00
6345;BME280;3205;42.666;23.264;2023-01-10T08:23:19;93362.84;;;5.30;100.00
6345;BME280;3205;42.666;23.264;2023-01-10T08:25:46;93372.25;;;5.31;100.00
6345;BME280;3205;42.666;23.264;2023-01-10T08:28:13;93358.63;;;5.38;100.00
6345;BME280;3205;42.666;23.264;2023-01-10T08:30:39;93345.53;;;5.38;100.00
6345;BME280;3205;42.666;23.264;2023-01-10T08:33:06;93346.16;;;5.35;100.00
6345;BME280;3205;42.666;23.264;2023-01-10T08:35:35;93344.97;;;5.44;100.00
6345;BME280;3205;42.666;23.264;2023-01-10T08:38:02;93349.56;;;5.35;100.00
6345;BME280;3205;42.666;23.264;2023-01-10T08:40:28;93346.50;;;5.33;100.00
6345;BME280;3205;42.666;23.264;2023-01-10T08:43:00;93339.84;;;5.36;100.00
6345;BME280;3205;42.666;23.264;2023-01-10T08:45:26;93342.00;;;5.34;100.00
6345;BME280;3205;42.666;23.264;2023-01-10T08:47:53;93340.91;;;5.35;100.00
6345;BME280;3205;42.666;23.264;2023-01-10T08:50:19;93344.84;;;5.29;100.00
6345;BME280;3205;42.666;23.264;2023-01-10T08:52:46;93338.97;;;5.32;100.00
6345;BME280;3205;42.666;23.264;2023-01-10T08:55:12;93337.53;;;5.34;100.00
6345;BME280;3205;42.666;23.264;2023-01-10T08:57:38;93338.09;;;5.40;100.00
6345;BME280;3205;42.666;23.264;2023-01-10T09:00:06;93340.94;;;5.47;100.00
6345;BME280;3205;42.666;23.264;2023-01-10T09:02:33;93337.91;;;5.45;100.00
6345;BME280;3205;42.666;23.264;2023-01-10T09:04:59;93329.69;;;5.46;100.00
6345;BME280;3205;42.666;23.264;2023-01-10T09:07:25;93326.53;;;5.53;100.00
6345;BME280;3205;42.666;23.264;2023-01-10T09:09:51;93319.09;;;5.55;100.00
6345;BME280;3205;42.666;23.264;2023-01-10T09:12:18;93312.78;;;5.56;100.00
6345;BME280;3205;42.666;23.264;2023-01-10T09:15:03;93309.19;;;5.72;100.00
6345;BME280;3205;42.666;23.264;2023-01-10T09:17:31;93321.00;;;5.78;100.00
6345;BME280;3205;42.666;23.264;2023-01-10T09:19:58;93316.97;;;5.81;100.00
6345;BME280;3205;42.666;23.264;2023-01-10T09:22:24;93322.00;;;5.86;100.00
6345;BME280;3205;42.666;23.264;2023-01-10T09:24:50;93317.63;;;5.89;100.00
6345;BME280;3205;42.666;23.264;2023-01-10T09:27:16;93323.94;;;5.88;100.00
6345;BME280;3205;42.666;23.264;2023-01-10T09:29:42;93323.63;;;5.90;100.00
6345;BME280;3205;42.666;23.264;2023-01-10T09:32:08;93315.75;;;5.90;100.00
6345;BME280;3205;42.666;23.264;2023-01-10T09:34:36;93315.00;;;5.89;100.00
6345;BME280;3205;42.666;23.264;2023-01-10T09:37:02;93301.34;;;5.96;100.00
6345;BME280;3205;42.666;23.264;2023-01-10T09:39:34;93297.81;;;6.04;100.00
6345;BME280;3205;42.666;23.264;2023-01-10T09:42:13;93293.47;;;6.08;100.00
6345;BME280;3205;42.666;23.264;2023-01-10T09:44:49;93290.50;;;6.09;100.00
6345;BME280;3205;42.666;23.264;2023-01-10T09:47:23;93288.31;;;6.11;100.00
6345;BME280;3205;42.666;23.264;2023-01-10T09:49:59;93285.69;;;6.11;100.00
6345;BME280;3205;42.666;23.264;2023-01-10T09:52:32;93286.34;;;6.08;100.00
6345;BME280;3205;42.666;23.264;2023-01-10T09:55:05;93280.44;;;6.11;100.00
6345;BME280;3205;42.666;23.264;2023-01-10T09:57:35;93282.41;;;6.14;100.00
6345;BME280;3205;42.666;23.264;2023-01-10T10:00:01;93276.06;;;6.15;100.00
6345;BME280;3205;42.666;23.264;2023-01-10T10:02:31;93275.19;;;6.11;100.00
6345;BME280;3205;42.666;23.264;2023-01-10T10:05:07;93274.22;;;6.04;100.00
6345;BME280;3205;42.666;23.264;2023-01-10T10:07:35;93267.16;;;5.92;100.00
6345;BME280;3205;42.666;23.264;2023-01-10T10:10:04;93265.28;;;5.93;100.00
6345;BME280;3205;42.666;23.264;2023-01-10T10:12:37;93264.84;;;5.91;100.00
6345;BME280;3205;42.666;23.264;2023-01-10T10:15:19;93269.56;;;5.86;100.00
6345;BME280;3205;42.666;23.264;2023-01-10T10:17:53;93265.41;;;5.85;100.00
6345;BME280;3205;42.666;23.264;2023-01-10T10:20:30;93258.75;;;5.87;100.00
6345;BME280;3205;42.666;23.264;2023-01-10T10:23:11;93260.16;;;5.85;100.00
6345;BME280;3205;42.666;23.264;2023-01-10T10:25:52;93256.34;;;5.82;100.00
6345;BME280;3205;42.666;23.264;2023-01-10T10:31:20;93248.69;;;5.77;100.00
6345;BME280;3205;42.666;23.264;2023-01-10T10:34:01;93243.53;;;5.81;100.00
6345;BME280;3205;42.666;23.264;2023-01-10T10:36:37;93243.13;;;5.79;100.00
6345;BME280;3205;42.666;23.264;2023-01-10T10:39:05;93235.28;;;5.79;100.00
6345;BME280;3205;42.666;23.264;2023-01-10T10:41:38;93234.06;;;5.76;100.00
6345;BME280;3205;42.666;23.264;2023-01-10T10:44:20;93234.50;;;5.78;100.00
6345;BME280;3205;42.666;23.264;2023-01-10T10:46:48;93223.25;;;5.78;100.00
6345;BME280;3205;42.666;23.264;2023-01-10T10:49:19;93219.66;;;5.82;100.00
6345;BME280;3205;42.666;23.264;2023-01-10T10:51:51;93217.34;;;5.81;100.00
6345;BME280;3205;42.666;23.264;2023-01-10T10:54:17;93217.03;;;5.82;100.00
6345;BME280;3205;42.666;23.264;2023-01-10T10:56:44;93219.31;;;5.84;100.00
6345;BME280;3205;42.666;23.264;2023-01-10T10:59:15;93225.88;;;5.78;100.00
6345;BME280;3205;42.666;23.264;2023-01-10T11:01:44;93225.53;;;5.79;100.00
6345;BME280;3205;42.666;23.264;2023-01-10T11:04:15;93233.41;;;5.79;100.00
6345;BME280;3205;42.666;23.264;2023-01-10T11:06:44;93230.44;;;5.81;100.00
6345;BME280;3205;42.666;23.264;2023-01-10T11:09:15;93220.63;;;5.78;100.00
6345;BME280;3205;42.666;23.264;2023-01-10T11:11:45;93213.63;;;5.82;100.00
6345;BME280;3205;42.666;23.264;2023-01-10T11:14:12;93206.75;;;5.77;100.00
6345;BME280;3205;42.666;23.264;2023-01-10T11:16:40;93204.44;;;5.76;100.00
6345;BME280;3205;42.666;23.264;2023-01-10T11:19:12;93200.09;;;5.80;100.00
6345;BME280;3205;42.666;23.264;2023-01-10T11:21:40;93196.34;;;5.81;100.00
6345;BME280;3205;42.666;23.264;2023-01-10T11:24:22;93201.19;;;5.79;100.00
6345;BME280;3205;42.666;23.264;2023-01-10T11:26:51;93203.13;;;5.82;100.00
6345;BME280;3205;42.666;23.264;2023-01-10T11:29:20;93201.16;;;5.90;100.00
6345;BME280;3205;42.666;23.264;2023-01-10T11:31:49;93202.03;;;5.83;100.00
6345;BME280;3205;42.666;23.264;2023-01-10T11:34:21;93187.16;;;5.75;100.00
6345;BME280;3205;42.666;23.264;2023-01-10T11:36:52;93190.13;;;5.73;100.00
6345;BME280;3205;42.666;23.264;2023-01-10T11:39:19;93189.38;;;5.73;100.00
6345;BME280;3205;42.666;23.264;2023-01-10T11:41:45;93191.66;;;5.74;100.00
6345;BME280;3205;42.666;23.264;2023-01-10T11:44:21;93198.22;;;5.80;100.00
6345;BME280;3205;42.666;23.264;2023-01-10T11:46:49;93187.06;;;5.71;100.00
6345;BME280;3205;42.666;23.264;2023-01-10T11:49:24;93182.06;;;5.78;100.00
6345;BME280;3205;42.666;23.264;2023-01-10T11:51:54;93177.16;;;5.77;100.00
6345;BME280;3205;42.666;23.264;2023-01-10T11:54:22;93183.34;;;5.72;100.00
6345;BME280;3205;42.666;23.264;2023-01-10T11:56:55;93185.13;;;5.80;100.00
6345;BME280;3205;42.666;23.264;2023-01-10T11:59:22;93186.56;;;5.78;100.00
6345;BME280;3205;42.666;23.264;2023-01-10T12:01:55;93178.78;;;5.81;100.00
6345;BME280;3205;42.666;23.264;2023-01-10T12:04:21;93177.16;;;5.77;100.00
6345;BME280;3205;42.666;23.264;2023-01-10T12:06:50;93171.16;;;5.76;100.00
6345;BME280;3205;42.666;23.264;2023-01-10T12:09:39;93174.53;;;5.77;100.00
6345;BME280;3205;42.666;23.264;2023-01-10T12:12:20;93177.59;;;5.79;100.00
6345;BME280;3205;42.666;23.264;2023-01-10T12:14:48;93177.16;;;5.77;100.00
6345;BME280;3205;42.666;23.264;2023-01-10T12:17:22;93182.50;;;5.80;100.00
6345;BME280;3205;42.666;23.264;2023-01-10T12:19:49;93188.94;;;5.83;100.00
6345;BME280;3205;42.666;23.264;2023-01-10T12:22:18;93185.31;;;5.87;100.00
6345;BME280;3205;42.666;23.264;2023-01-10T12:24:48;93187.81;;;5.95;100.00
6345;BME280;3205;42.666;23.264;2023-01-10T12:27:17;93182.56;;;5.95;100.00
6345;BME280;3205;42.666;23.264;2023-01-10T12:29:48;93191.22;;;5.96;100.00
6345;BME280;3205;42.666;23.264;2023-01-10T12:32:21;93194.03;;;6.03;100.00
6345;BME280;3205;42.666;23.264;2023-01-10T12:34:55;93196.88;;;5.98;100.00
6345;BME280;3205;42.666;23.264;2023-01-10T12:37:27;93184.94;;;6.00;100.00
6345;BME280;3205;42.666;23.264;2023-01-10T12:39:59;93176.66;;;5.98;100.00
6345;BME280;3205;42.666;23.264;2023-01-10T12:42:34;93164.44;;;5.90;100.00
6345;BME280;3205;42.666;23.264;2023-01-10T12:45:27;93165.50;;;6.01;100.00
6345;BME280;3205;42.666;23.264;2023-01-10T12:48:01;93151.00;;;5.92;100.00
6345;BME280;3205;42.666;23.264;2023-01-10T12:50:30;93160.41;;;5.93;100.00
6345;BME280;3205;42.666;23.264;2023-01-10T12:53:02;93171.63;;;5.93;100.00
6345;BME280;3205;42.666;23.264;2023-01-10T12:55:33;93180.63;;;5.92;100.00
6345;BME280;3205;42.666;23.264;2023-01-10T12:58:02;93191.22;;;5.96;100.00
6345;BME280;3205;42.666;23.264;2023-01-10T13:00:32;93189.56;;;5.91;100.00
6345;BME280;3205;42.666;23.264;2023-01-10T13:03:05;93188.69;;;5.88;100.00
6345;BME280;3205;42.666;23.264;2023-01-10T13:05:35;93191.31;;;5.88;100.00
6345;BME280;3205;42.666;23.264;2023-01-10T13:08:04;93192.09;;;5.88;100.00
6345;BME280;3205;42.666;23.264;2023-01-10T13:10:32;93198.88;;;5.89;100.00
6345;BME280;3205;42.666;23.264;2023-01-10T13:13:09;93199.63;;;5.89;100.00
6345;BME280;3205;42.666;23.264;2023-01-10T13:15:46;93189.81;;;5.87;100.00
6345;BME280;3205;42.666;23.264;2023-01-10T13:18:17;93182.25;;;5.85;100.00
6345;BME280;3205;42.666;23.264;2023-01-10T13:20:45;93188.69;;;5.88;100.00
6345;BME280;3205;42.666;23.264;2023-01-10T13:23:19;93194.28;;;5.86;100.00
6345;BME280;3205;42.666;23.264;2023-01-10T13:25:54;93196.56;;;5.88;100.00